Map

Track Data

SID SEASON NUMBER BASIN SUBBASIN NAME ISO_TIME NATURE LAT LON WMO_WIND WMO_PRES WMO_AGENCY TRACK_TYPE DIST2LAND LANDFALL IFLAG USA_AGENCY USA_ATCF_ID USA_LAT USA_LON USA_RECORD USA_STATUS USA_WIND USA_PRES USA_SSHS USA_R34_NE USA_R34_SE USA_R34_SW USA_R34_NW USA_R50_NE USA_R50_SE USA_R50_SW USA_R50_NW USA_R64_NE USA_R64_SE USA_R64_SW USA_R64_NW USA_POCI USA_ROCI USA_RMW USA_EYE TOKYO_LAT TOKYO_LON TOKYO_GRADE TOKYO_WIND TOKYO_PRES TOKYO_R50_DIR TOKYO_R50_LONG TOKYO_R50_SHORT TOKYO_R30_DIR TOKYO_R30_LONG TOKYO_R30_SHORT TOKYO_LAND CMA_LAT CMA_LON CMA_CAT CMA_WIND CMA_PRES HKO_LAT HKO_LON HKO_CAT HKO_WIND HKO_PRES NEWDELHI_LAT NEWDELHI_LON NEWDELHI_GRADE NEWDELHI_WIND NEWDELHI_PRES NEWDELHI_CI NEWDELHI_DP NEWDELHI_POCI REUNION_LAT REUNION_LON REUNION_TYPE REUNION_WIND REUNION_PRES REUNION_TNUM REUNION_CI REUNION_RMW REUNION_R34_NE REUNION_R34_SE REUNION_R34_SW REUNION_R34_NW REUNION_R50_NE REUNION_R50_SE REUNION_R50_SW REUNION_R50_NW REUNION_R64_NE REUNION_R64_SE REUNION_R64_SW REUNION_R64_NW BOM_LAT BOM_LON BOM_TYPE BOM_WIND BOM_PRES BOM_TNUM BOM_CI BOM_RMW BOM_R34_NE BOM_R34_SE BOM_R34_SW BOM_R34_NW BOM_R50_NE BOM_R50_SE BOM_R50_SW BOM_R50_NW BOM_R64_NE BOM_R64_SE BOM_R64_SW BOM_R64_NW BOM_ROCI BOM_POCI BOM_EYE BOM_POS_METHOD BOM_PRES_METHOD NADI_LAT NADI_LON NADI_CAT NADI_WIND NADI_PRES WELLINGTON_LAT WELLINGTON_LON WELLINGTON_WIND WELLINGTON_PRES DS824_LAT DS824_LON DS824_STAGE DS824_WIND DS824_PRES TD9636_LAT TD9636_LON TD9636_STAGE TD9636_WIND TD9636_PRES TD9635_LAT TD9635_LON TD9635_WIND TD9635_PRES TD9635_ROCI NEUMANN_LAT NEUMANN_LON NEUMANN_CLASS NEUMANN_WIND NEUMANN_PRES MLC_LAT MLC_LON MLC_CLASS MLC_WIND MLC_PRES USA_GUST BOM_GUST BOM_GUST_PER REUNION_GUST REUNION_GUST_PER USA_SEAHGT USA_SEARAD_NE USA_SEARAD_SE USA_SEARAD_SW USA_SEARAD_NW STORM_SPEED STORM_DIR
1912287N07147 1912 54 WP MM NOT_NAMED 1912-10-13 09:00:00 NR 7.40000 146.900 main 1064 1064 __________O___ -1 7.40000 146.900 2 37 314
1912287N07147 1912 54 WP MM NOT_NAMED 1912-10-13 12:00:00 NR 8.67527 145.553 main 1215 1215 __________P___ -1 8.67527 145.553 2 36 314
1912287N07147 1912 54 WP MM NOT_NAMED 1912-10-13 15:00:00 NR 9.86941 144.280 main 1368 1368 __________P___ -1 9.86941 144.280 2 33 313
1912287N07147 1912 54 WP MM NOT_NAMED 1912-10-13 18:00:00 NR 10.9031 143.166 main 1504 1504 __________P___ -1 10.9031 143.166 2 27 313
1912287N07147 1912 54 WP MM NOT_NAMED 1912-10-13 21:00:00 NR 11.7000 142.300 main 1557 1557 __________O___ -1 11.7000 142.300 2 19 313
1912287N07147 1912 54 WP MM NOT_NAMED 1912-10-14 00:00:00 NR 12.2168 141.738 main 1591 1591 __________P___ -1 12.2168 141.738 2 12 314
1912287N07147 1912 54 WP MM NOT_NAMED 1912-10-14 03:00:00 NR 12.5333 141.405 main 1609 1609 __________P___ -1 12.5333 141.405 2 8 316
1912287N07147 1912 54 WP MM NOT_NAMED 1912-10-14 06:00:00 NR 12.7584 141.195 main 1632 1628 __________P___ -1 12.7584 141.195 2 6 320
1912287N07147 1912 54 WP MM NOT_NAMED 1912-10-14 09:00:00 NR 13.0000 141.000 main 1645 1640 __________O___ -1 13.0000 141.000 2 9 322
1912287N07147 1912 54 WP MM NOT_NAMED 1912-10-14 12:00:00 NR 13.4303 140.653 main 1642 1606 __________P___ -1 13.4303 140.653 2 11 323
1912287N07147 1912 54 WP MM NOT_NAMED 1912-10-14 15:00:00 NR 13.8924 140.300 main 1608 1582 __________P___ -1 13.8924 140.300 2 12 324
1912287N07147 1912 54 WP MM NOT_NAMED 1912-10-14 18:00:00 NR 14.3584 139.947 main 1576 1552 __________P___ -1 14.3584 139.947 2 11 323
1912287N07147 1912 54 WP MM NOT_NAMED 1912-10-14 21:00:00 NR 14.8000 139.600 main 1552 1526 __________O___ -1 14.8000 139.600 2 10 321
1912287N07147 1912 54 WP MM NOT_NAMED 1912-10-15 00:00:00 NR 15.1622 139.275 main 1528 1501 __________P___ -1 15.1622 139.275 2 9 318
1912287N07147 1912 54 WP MM NOT_NAMED 1912-10-15 03:00:00 NR 15.4996 138.956 main 1503 1477 __________P___ -1 15.4996 138.956 2 9 318
1912287N07147 1912 54 WP MM NOT_NAMED 1912-10-15 06:00:00 NR 15.8372 138.634 main 1469 1450 __________P___ -1 15.8372 138.634 2 9 318
1912287N07147 1912 54 WP MM NOT_NAMED 1912-10-15 09:00:00 NR 16.2000 138.300 main 1450 1423 __________O___ -1 16.2000 138.300 2 10 318
1912287N07147 1912 54 WP MM NOT_NAMED 1912-10-15 12:00:00 NR 16.5889 137.927 main 1423 1404 __________P___ -1 16.5889 137.927 2 11 318
1912287N07147 1912 54 WP MM NOT_NAMED 1912-10-15 15:00:00 NR 17.0102 137.542 main 1398 1385 __________P___ -1 17.0102 137.542 2 12 320
1912287N07147 1912 54 WP MM NOT_NAMED 1912-10-15 18:00:00 NR 17.4764 137.161 main 1390 1370 __________P___ -1 17.4764 137.161 2 12 324
1912287N07147 1912 54 WP MM NOT_NAMED 1912-10-15 21:00:00 NR 18.0000 136.800 main 1375 1364 __________O___ -1 18.0000 136.800 2 13 327
1912287N07147 1912 54 WP MM NOT_NAMED 1912-10-16 00:00:00 NR 18.5764 136.419 main 1370 1366 __________P___ -1 18.5764 136.419 2 14 330
1912287N07147 1912 54 WP MM NOT_NAMED 1912-10-16 03:00:00 NR 19.2103 136.067 main 1378 1340 __________P___ -1 19.2103 136.067 2 15 335
1912287N07147 1912 54 WP MM NOT_NAMED 1912-10-16 06:00:00 NR 19.8890 135.782 main 1340 1260 __________P___ -1 19.8890 135.782 2 15 342
1912287N07147 1912 54 WP MM NOT_NAMED 1912-10-16 09:00:00 NR 20.6000 135.600 main 1260 1184 __________O___ -1 20.6000 135.600 2 15 352
1912287N07147 1912 54 WP MM NOT_NAMED 1912-10-16 12:00:00 NR 21.3614 135.549 main 1173 1106 __________P___ -1 21.3614 135.549 2 16 0
1912287N07147 1912 54 WP MM NOT_NAMED 1912-10-16 15:00:00 NR 22.1445 135.605 main 1106 1030 __________P___ -1 22.1445 135.605 2 16 6
1912287N07147 1912 54 WP MM NOT_NAMED 1912-10-16 18:00:00 NR 22.9054 135.734 main 1030 972 __________P___ -1 22.9054 135.734 2 15 11
1912287N07147 1912 54 WP MM NOT_NAMED 1912-10-16 21:00:00 NR 23.6000 135.900 main 972 920 __________O___ -1 23.6000 135.900 2 13 12
1912287N07147 1912 54 WP MM NOT_NAMED 1912-10-17 00:00:00 NR 24.1839 136.038 main 920 883 __________P___ -1 24.1839 136.038 2 11 14
1912287N07147 1912 54 WP MM NOT_NAMED 1912-10-17 03:00:00 NR 24.6973 136.205 main 883 856 __________P___ -1 24.6973 136.205 2 10 18
1912287N07147 1912 54 WP MM NOT_NAMED 1912-10-17 06:00:00 NR 25.1620 136.395 main 847 822 __________P___ -1 25.1620 136.395 2 10 22
1912287N07147 1912 54 WP MM NOT_NAMED 1912-10-17 09:00:00 NR 25.6000 136.600 main 822 799 __________O___ -1 25.6000 136.600 2 9 22
1912287N07147 1912 54 WP MM NOT_NAMED 1912-10-17 12:00:00 NR 26.0176 136.772 main 799 772 __________P___ -1 26.0176 136.772 2 9 22
1912287N07147 1912 54 WP MM NOT_NAMED 1912-10-17 15:00:00 NR 26.4191 136.964 main 779 748 __________P___ -1 26.4191 136.964 2 9 25
1912287N07147 1912 54 WP MM NOT_NAMED 1912-10-17 18:00:00 NR 26.8361 137.198 main 748 699 __________P___ -1 26.8361 137.198 2 10 29
1912287N07147 1912 54 WP MM NOT_NAMED 1912-10-17 21:00:00 NR 27.3000 137.500 main 699 653 __________O___ -1 27.3000 137.500 2 12 31
1912287N07147 1912 54 WP MM NOT_NAMED 1912-10-18 00:00:00 NR 27.8576 137.875 main 645 602 __________P___ -1 27.8576 137.875 2 14 32
1912287N07147 1912 54 WP MM NOT_NAMED 1912-10-18 03:00:00 NR 28.4620 138.323 main 596 557 __________P___ -1 28.4620 138.323 2 15 35
1912287N07147 1912 54 WP MM NOT_NAMED 1912-10-18 06:00:00 NR 29.0854 138.835 main 557 535 __________P___ -1 29.0854 138.835 2 16 37
1912287N07147 1912 54 WP MM NOT_NAMED 1912-10-18 09:00:00 NR 29.7000 139.400 main 535 499 __________O___ -1 29.7000 139.400 2 15 40
1912287N07147 1912 54 WP MM NOT_NAMED 1912-10-18 12:00:00 NR 30.2417 139.940 main 501 459 __________P___ -1 30.2417 139.940 2 15 42
1912287N07147 1912 54 WP MM NOT_NAMED 1912-10-18 15:00:00 NR 30.7735 140.536 main 452 416 __________P___ -1 30.7735 140.536 2 15 45
1912287N07147 1912 54 WP MM NOT_NAMED 1912-10-18 18:00:00 NR 31.3187 141.214 main 419 386 __________P___ -1 31.3187 141.214 2 17 48
1912287N07147 1912 54 WP MM NOT_NAMED 1912-10-18 21:00:00 NR 31.9000 142.000 main 386 368 __________O___ -1 31.9000 142.000 2 19 48
1912287N07147 1912 54 WP MM NOT_NAMED 1912-10-19 00:00:00 NR 32.5784 142.888 main 370 367 __________P___ -1 32.5784 142.888 2 21 49
1912287N07147 1912 54 WP MM NOT_NAMED 1912-10-19 03:00:00 NR 33.2849 143.895 main 383 382 __________P___ -1 33.2849 143.895 2 23 52
1912287N07147 1912 54 WP MM NOT_NAMED 1912-10-19 06:00:00 NR 33.9739 145.005 main 418 418 __________P___ -1 33.9739 145.005 2 23 55
1912287N07147 1912 54 WP MM NOT_NAMED 1912-10-19 09:00:00 NR 34.6000 146.200 main 496 496 __________O___ -1 34.6000 146.200 2 23 60
1912287N07147 1912 54 WP MM NOT_NAMED 1912-10-19 12:00:00 NR 35.1298 147.462 main 600 598 __________P___ -1 35.1298 147.462 2 23 65
1912287N07147 1912 54 WP MM NOT_NAMED 1912-10-19 15:00:00 NR 35.5747 148.775 main 712 712 __________P___ -1 35.5747 148.775 2 23 69
1912287N07147 1912 54 WP MM NOT_NAMED 1912-10-19 18:00:00 NR 35.9571 150.126 main 801 801 __________P___ -1 35.9571 150.126 2 23 72
1912287N07147 1912 54 WP MM NOT_NAMED 1912-10-19 21:00:00 NR 36.3000 151.500 main 895 __________O___ -1 36.3000 151.500 2 23 73

Digital Typhoon Data and Search

About IBTrACS Database

This database is a web-friendly format of International Best Track Archive for Climate Stewardship (IBTrACS), a global best track data archive curated by NOAA dating back to 1842.

Updated: 2021-12-01